Alexander City, Alabama
Current Conditions -  °F | °C
As of 6:35 PM on Sunday 25 Jan 2015 (Local Time) from KALX Reporting Station
Scattered Clouds Scattered Clouds  
Wind Chill: 14°   Ceiling: Unl
Heat Index: 14°   Visibility: 10mi
Dew Point:   Wind: 6mph
Humidity: 42%   Direction: 200°SSW
Pressure: 29.78"   Gusts: NA
Location:  32.94°N, 85.95°W
Report Text: KALX 260035Z AUTO 20005KT 10SM SCT075 SCT085 14/01 A2978 RMK AO2 LTG DSNT N AND NW T01370010
Loading
Personal Weather Stations






























Interactive Weather Map New forecast layout! Learn more

10-Day Weather Forecast

Advertisements
Track Severe Weather on mobile